createdAt,value
2023-02-01T19:38:54.513Z,10.4
2023-02-01T19:44:28.110Z,10.7
2023-02-01T19:50:05.467Z,10.7
2023-02-01T19:56:02.295Z,10.7
2023-02-01T20:01:57.913Z,10.7
2023-02-01T20:07:33.141Z,10.8
2023-02-01T20:13:38.022Z,10.8
2023-02-01T20:19:14.014Z,10.8
2023-02-01T20:24:49.447Z,10.8
2023-02-01T20:30:25.933Z,10.7
2023-02-01T20:36:01.722Z,10.8
2023-02-01T20:41:41.980Z,10.8
2023-02-01T20:47:17.360Z,10.8
2023-02-01T20:53:02.010Z,10.8
2023-02-01T20:59:01.270Z,10.8
2023-02-01T21:05:13.893Z,10.8
2023-02-01T21:10:56.403Z,10.8
2023-02-01T21:16:35.886Z,10.8
2023-02-01T21:22:21.036Z,10.8
2023-02-01T21:27:56.750Z,10.8
2023-02-01T21:33:32.471Z,10.8
2023-02-01T21:39:15.634Z,10.8
2023-02-01T21:45:39.779Z,10.7
2023-02-01T21:51:55.889Z,10.7
2023-02-01T21:57:37.117Z,10.7
2023-02-01T22:03:12.157Z,10.6
2023-02-01T22:08:47.117Z,10.5
2023-02-01T22:14:22.012Z,10.5
2023-02-01T22:19:58.853Z,10.4
2023-02-01T22:25:34.233Z,10.3
2023-02-01T22:31:25.428Z,10.2
2023-02-01T22:37:23.676Z,10.1
2023-02-01T22:43:06.558Z,10
2023-02-01T22:48:48.891Z,9.9
2023-02-01T22:54:26.231Z,9.8
2023-02-01T23:00:00.968Z,9.7
2023-02-01T23:05:36.395Z,9.6
2023-02-01T23:11:11.314Z,9.5
2023-02-01T23:16:46.686Z,9.5
2023-02-01T23:22:22.838Z,9.4
2023-02-01T23:28:19.496Z,9.3
2023-02-01T23:33:54.599Z,9.2
2023-02-01T23:39:29.992Z,9.1
2023-02-01T23:45:07.642Z,9
2023-02-01T23:50:43.065Z,9
2023-02-01T23:56:26.440Z,8.9
